createdAt,value
2019-03-08T07:23:27.577Z,83.42
2019-03-08T07:24:20.059Z,83.49
2019-03-08T07:25:20.055Z,83.94
2019-03-08T07:26:20.071Z,83.53
2019-03-08T07:27:20.023Z,82.60
2019-03-08T07:28:43.926Z,83.07
2019-03-08T07:29:41.301Z,82.97
2019-03-08T07:30:20.004Z,83.49
2019-03-08T07:31:20.271Z,83.39
2019-03-08T07:32:19.981Z,83.70
2019-03-08T07:33:20.000Z,83.39
2019-03-08T07:34:19.953Z,83.59
2019-03-08T07:35:19.942Z,83.39
2019-03-08T07:36:19.940Z,83.59
2019-03-08T07:37:19.924Z,83.59
2019-03-08T07:38:19.927Z,83.70
2019-03-08T07:39:19.899Z,84.31
2019-03-08T07:40:19.919Z,83.39
2019-03-08T07:41:19.892Z,83.90
2019-03-08T07:42:19.887Z,83.70
2019-03-08T07:43:19.907Z,84.11
2019-03-08T07:44:19.840Z,84.11
2019-03-08T07:45:19.838Z,83.70
2019-03-08T07:46:19.825Z,83.94
2019-03-08T07:47:19.805Z,84.14
2019-03-08T07:48:19.857Z,83.80
2019-03-08T07:49:19.788Z,83.73
2019-03-08T07:50:19.794Z,83.63
2019-03-08T07:51:19.775Z,83.84
2019-03-08T07:52:19.801Z,84.14
2019-03-08T07:53:19.776Z,83.63
2019-03-08T07:54:19.729Z,83.63
2019-03-08T07:55:19.770Z,84.25
2019-03-08T07:56:19.741Z,84.25
2019-03-08T07:57:19.702Z,83.70
2019-03-08T07:58:20.061Z,84.31
2019-03-08T07:59:19.738Z,84.56
2019-03-08T08:00:19.679Z,84.00
2019-03-08T08:01:19.672Z,84.00
2019-03-08T08:02:19.658Z,84.11
2019-03-08T08:03:19.660Z,83.73
2019-03-08T08:04:19.626Z,83.70
2019-03-08T08:05:19.674Z,84.05
2019-03-08T08:06:19.613Z,83.42
2019-03-08T08:07:19.596Z,83.07
2019-03-08T08:08:20.632Z,83.42
2019-03-08T08:09:19.576Z,82.97
2019-03-08T08:10:19.573Z,82.25
2019-03-08T08:11:19.641Z,83.63
2019-03-08T08:12:19.554Z,83.39
2019-03-08T08:13:19.552Z,83.12
2019-03-08T08:14:19.517Z,82.29
2019-03-08T08:15:19.521Z,83.42
2019-03-08T08:16:19.503Z,82.46
2019-03-08T08:17:19.488Z,82.46
2019-03-08T08:18:19.496Z,82.67
2019-03-08T08:19:19.486Z,82.46
2019-03-08T08:20:19.457Z,82.87
2019-03-08T08:21:19.435Z,82.56
2019-03-08T08:22:19.442Z,83.39
2019-03-08T08:23:19.421Z,83.28
2019-03-08T08:24:19.437Z,82.56
2019-03-08T08:25:19.402Z,83.39
2019-03-08T08:26:19.394Z,82.15
2019-03-08T08:27:19.385Z,82.46
2019-03-08T08:28:19.362Z,82.15
2019-03-08T08:29:20.694Z,82.46
2019-03-08T08:30:19.343Z,82.35
2019-03-08T08:31:19.347Z,82.25
2019-03-08T08:32:19.324Z,81.74
2019-03-08T08:33:19.313Z,82.46
2019-03-08T08:34:19.347Z,82.97
2019-03-08T08:35:19.369Z,83.59
2019-03-08T08:36:19.273Z,83.49
2019-03-08T08:37:19.278Z,82.25
2019-03-08T08:38:19.343Z,83.49
2019-03-08T08:39:19.305Z,83.28
2019-03-08T08:40:19.240Z,83.42
2019-03-08T08:41:19.324Z,83.59
2019-03-08T08:42:19.536Z,83.42
2019-03-08T08:43:20.431Z,83.42
2019-03-08T08:44:19.495Z,83.73
2019-03-08T08:45:19.294Z,84.35
2019-03-08T08:46:19.212Z,85.38
2019-03-08T08:47:19.264Z,86.39
2019-03-08T08:48:19.146Z,88.18
2019-03-08T08:49:19.166Z,89.81
2019-03-08T08:50:19.118Z,91.75
2019-03-08T08:51:19.148Z,92.58
2019-03-08T08:52:19.154Z,93.87
2019-03-08T08:53:19.115Z,94.03
2019-03-08T08:54:19.116Z,93.41
2019-03-08T08:55:19.118Z,92.68
2019-03-08T08:56:19.102Z,92.48
2019-03-08T08:57:19.078Z,93.10
2019-03-08T08:58:19.106Z,92.68
2019-03-08T09:01:02.915Z,92.68
2019-03-08T09:02:03.239Z,92.99
2019-03-08T09:03:02.845Z,93.82
2019-03-08T09:04:02.906Z,93.66
2019-03-08T09:05:03.089Z,94.54
2019-03-08T09:06:02.797Z,95.00
2019-03-08T09:07:02.816Z,94.90
2019-03-08T09:08:02.783Z,95.10
2019-03-08T09:09:02.772Z,94.96
2019-03-08T09:10:02.906Z,95.62
2019-03-08T09:11:02.742Z,95.78
2019-03-08T09:12:02.721Z,95.06
2019-03-08T09:13:03.134Z,95.37
2019-03-08T09:14:03.352Z,94.75
2019-03-08T09:15:03.772Z,94.23
2019-03-08T09:16:02.709Z,94.54
2019-03-08T09:17:02.682Z,94.34
2019-03-08T09:18:02.815Z,92.27
2019-03-08T09:19:02.681Z,92.11
2019-03-08T09:20:03.820Z,93.35
2019-03-08T09:21:02.665Z,93.97
2019-03-08T09:22:02.677Z,94.38
2019-03-08T09:23:02.629Z,94.90
2019-03-08T09:24:02.608Z,94.32
2019-03-08T09:25:03.605Z,94.89
2019-03-08T09:26:02.573Z,95.29
2019-03-08T09:27:02.562Z,95.09
2019-03-08T09:28:02.585Z,95.61
2019-03-08T09:29:02.580Z,95.81
2019-03-08T09:30:02.695Z,95.71
2019-03-08T09:31:03.577Z,95.71
2019-03-08T09:32:02.513Z,96.02
2019-03-08T12:51:01.880Z,73.19
2019-03-08T12:52:02.862Z,73.40
2019-03-08T12:53:02.828Z,72.99
2019-03-08T12:54:02.810Z,73.85
2019-03-08T12:55:02.807Z,74.26
2019-03-08T12:56:02.786Z,74.26
2019-03-08T12:57:02.797Z,75.08
2019-03-08T12:58:02.763Z,75.90
2019-03-08T12:59:02.771Z,76.25
2019-03-08T13:00:02.881Z,77.00
2019-03-08T13:01:02.744Z,77.34
2019-03-08T13:02:02.746Z,78.41
2019-03-08T13:03:02.718Z,78.92
2019-03-08T13:04:02.702Z,79.64
2019-03-08T13:05:02.722Z,79.85
2019-03-08T13:06:02.695Z,79.79
2019-03-08T13:07:02.693Z,81.23
2019-03-08T13:08:02.651Z,82.50
2019-03-08T13:09:02.661Z,82.60
2019-03-08T13:10:02.631Z,83.39
2019-03-08T13:11:02.622Z,83.84
2019-03-08T13:12:02.637Z,84.87
2019-03-08T13:13:02.607Z,86.04
2019-03-08T13:14:02.594Z,85.52
2019-03-08T13:15:02.577Z,85.83
2019-03-08T13:16:02.569Z,85.67
2019-03-08T13:17:02.668Z,85.87
2019-03-08T13:18:02.541Z,86.87
2019-03-08T13:19:02.534Z,86.39
2019-03-08T13:20:02.543Z,85.87
2019-03-08T13:21:02.523Z,85.52
2019-03-08T13:22:02.510Z,86.55
2019-03-08T13:23:03.170Z,86.72
2019-03-08T13:24:02.477Z,84.52
2019-03-08T13:25:02.499Z,85.65
2019-03-08T13:26:02.466Z,84.31
2019-03-08T13:27:02.479Z,83.73
2019-03-08T13:28:02.438Z,85.24
2019-03-08T13:29:02.427Z,83.49
2019-03-08T13:30:02.477Z,82.35
2019-03-08T13:31:02.414Z,80.95
2019-03-08T13:32:02.423Z,81.37
2019-03-08T13:33:02.436Z,79.72
2019-03-08T13:34:02.389Z,80.65
2019-03-08T13:35:02.355Z,79.41
2019-03-08T13:36:02.346Z,80.85
2019-03-08T13:37:02.344Z,80.40
2019-03-08T13:38:02.343Z,80.61
2019-03-08T13:39:02.316Z,80.71
2019-03-08T13:40:02.310Z,78.65
2019-03-08T13:41:02.302Z,79.58
2019-03-08T13:42:02.285Z,79.58
2019-03-08T13:43:02.288Z,79.16
2019-03-08T13:44:02.272Z,79.88
2019-03-08T13:45:02.255Z,79.03
2019-03-08T13:46:02.238Z,78.34
2019-03-08T13:47:02.221Z,78.24
2019-03-08T13:48:02.227Z,78.34
2019-03-08T13:49:02.206Z,78.44
2019-03-08T13:50:02.199Z,78.51
2019-03-08T13:51:02.185Z,78.14
2019-03-08T13:52:02.164Z,78.03
2019-03-08T13:53:02.217Z,78.20
2019-03-08T13:54:02.148Z,78.20
2019-03-08T13:55:02.145Z,78.41
2019-03-08T13:56:02.128Z,78.20
2019-03-08T13:57:02.113Z,77.28
2019-03-08T13:58:02.123Z,77.28
2019-03-08T13:59:02.096Z,77.17
2019-03-08T14:00:02.173Z,78.00
2019-03-08T14:01:02.066Z,77.89
2019-03-08T14:02:02.070Z,78.51
2019-03-08T14:03:02.069Z,78.51
2019-03-08T14:04:02.041Z,78.92
2019-03-08T14:05:02.040Z,79.33
2019-03-08T14:06:02.006Z,79.03
2019-03-08T14:07:02.004Z,79.95
2019-03-08T14:08:01.999Z,80.16
2019-03-08T14:09:01.970Z,81.39
2019-03-08T14:10:01.958Z,81.39
2019-03-08T14:11:01.952Z,82.63
2019-03-08T14:12:01.949Z,82.53
2019-03-08T14:13:01.954Z,82.56
2019-03-08T14:14:01.916Z,82.87
2019-03-08T14:15:01.904Z,83.49
2019-03-08T14:16:01.898Z,84.17
2019-03-08T14:17:01.886Z,84.31
2019-03-08T14:18:01.900Z,84.31
2019-03-08T14:19:01.874Z,84.00
2019-03-08T14:20:01.858Z,82.15
2019-03-08T14:21:01.843Z,82.32
2019-03-08T14:22:01.843Z,81.39
2019-03-08T14:23:01.846Z,78.82
2019-03-08T14:24:01.818Z,77.79
2019-03-08T14:25:01.799Z,77.79
2019-03-08T14:26:01.798Z,76.56
2019-03-08T14:27:01.782Z,76.52
2019-03-08T14:28:01.780Z,76.93
2019-03-08T14:29:01.870Z,77.00
2019-03-08T14:30:01.759Z,74.95
2019-03-08T14:31:01.742Z,76.28
2019-03-08T14:32:01.729Z,76.25
2019-03-08T14:33:02.895Z,75.01
2019-03-08T14:35:00.688Z,74.50
2019-03-08T14:36:02.954Z,75.32
2019-03-08T14:37:01.674Z,75.01
2019-03-08T14:38:02.208Z,75.29
2019-03-08T14:39:04.245Z,74.98
2019-03-08T14:40:01.633Z,73.95
2019-03-08T14:41:01.617Z,74.77
2019-03-08T14:42:03.850Z,74.57
2019-03-08T14:43:01.624Z,74.05
2019-03-08T14:44:01.593Z,73.95
2019-03-08T14:45:03.529Z,71.89
2019-03-08T14:46:01.565Z,72.34
2019-03-08T14:47:01.560Z,73.27
2019-03-08T14:48:01.569Z,73.64
2019-03-08T14:49:01.529Z,73.33
2019-03-08T14:50:01.534Z,72.55
2019-03-08T14:52:11.838Z,74.22
2019-03-08T14:53:12.803Z,73.50
2019-03-08T14:54:12.783Z,73.50
2019-03-08T14:55:12.801Z,74.43
2019-03-08T15:18:10.856Z,70.49
2019-03-08T15:19:11.817Z,71.62
2019-03-08T15:20:15.094Z,70.18
2019-03-08T15:21:11.793Z,67.75
2019-03-08T15:22:11.782Z,69.18
2019-03-08T15:23:13.384Z,68.37
2019-03-08T15:24:11.759Z,67.65
2019-03-08T15:25:12.696Z,69.90
2019-03-08T15:26:11.767Z,69.94
2019-03-08T15:27:11.729Z,69.60
2019-03-08T15:28:11.715Z,68.67
2019-03-08T15:29:13.545Z,69.39
2019-03-08T15:30:11.705Z,67.88
2019-03-08T15:31:11.681Z,68.50
2019-03-08T15:32:11.803Z,68.19
2019-03-08T15:33:11.662Z,67.98
2019-03-08T15:34:14.476Z,67.68
2019-03-08T15:35:11.666Z,68.08
2019-03-08T15:36:11.623Z,68.08
2019-03-08T15:37:11.626Z,68.40
2019-03-08T15:38:11.601Z,69.53
2019-03-08T15:39:11.587Z,69.53
2019-03-08T15:40:11.603Z,68.80
2019-03-08T15:41:11.583Z,69.73
2019-03-08T15:42:11.566Z,69.80
2019-03-08T15:43:13.625Z,68.57
2019-03-08T15:44:11.550Z,69.90
2019-03-08T15:45:11.539Z,69.39
2019-03-08T15:46:11.558Z,69.39
2019-03-08T15:47:13.447Z,69.39
2019-03-08T15:48:14.641Z,70.04
2019-03-08T15:49:11.493Z,69.63
2019-03-08T15:50:11.466Z,69.53
2019-03-08T15:51:11.487Z,70.28
2019-03-08T15:52:11.462Z,71.62
2019-03-08T15:53:11.440Z,70.76
2019-03-08T15:54:11.429Z,71.37
2019-03-08T15:55:11.421Z,71.41
2019-03-08T15:56:11.519Z,71.58
2019-03-08T15:57:11.397Z,71.82
2019-03-08T15:58:12.005Z,72.34
2019-03-08T15:59:11.370Z,71.82
2019-03-08T16:00:11.363Z,71.82
2019-03-08T16:01:11.370Z,71.51
2019-03-08T16:02:11.343Z,72.75
2019-03-08T16:03:11.325Z,72.81
2019-03-08T16:04:12.079Z,72.24
2019-03-08T16:05:11.331Z,72.54
2019-03-08T16:06:11.312Z,73.16
2019-03-08T16:07:11.292Z,72.72
2019-03-08T16:08:11.277Z,72.51
2019-03-08T16:09:11.257Z,73.85
2019-03-08T16:10:11.262Z,73.44
2019-03-08T16:11:11.265Z,73.74
2019-03-08T16:12:11.240Z,73.74
2019-03-08T16:13:11.220Z,72.41
2019-03-08T16:14:11.201Z,72.47
2019-03-08T16:15:11.195Z,72.09
2019-03-08T16:16:11.202Z,72.20
2019-03-08T16:17:11.179Z,72.61
2019-03-08T16:18:11.163Z,73.44
2019-03-08T16:19:11.156Z,73.64
2019-03-08T16:20:11.136Z,71.48
2019-03-08T16:21:13.206Z,72.61
2019-03-08T16:22:11.152Z,73.02
2019-03-08T16:23:11.105Z,73.47
2019-03-08T16:24:11.094Z,72.85
2019-03-08T16:25:11.085Z,73.57
2019-03-08T16:26:11.103Z,73.68
2019-03-08T16:27:11.065Z,73.74
2019-03-08T16:28:11.046Z,73.98
2019-03-08T16:29:11.048Z,73.68
2019-03-08T16:30:11.035Z,73.68
2019-03-08T16:31:11.037Z,74.70
2019-03-08T16:32:11.027Z,74.70
2019-03-08T16:33:11.000Z,75.25
2019-03-08T16:34:10.986Z,74.33
2019-03-08T16:35:10.976Z,74.63
2019-03-08T16:36:11.572Z,75.15
2019-03-08T16:37:10.979Z,74.12
2019-03-08T16:38:10.948Z,74.33
2019-03-08T16:39:10.940Z,75.56
2019-03-08T16:40:10.918Z,75.05
2019-03-08T16:41:10.919Z,75.77
2019-03-08T16:42:10.904Z,74.53
2019-03-08T16:43:10.894Z,74.63
2019-03-08T16:44:10.868Z,75.05
2019-03-08T16:45:10.862Z,75.15
2019-03-08T16:46:10.878Z,74.95
2019-03-08T16:47:12.440Z,75.56
2019-03-08T16:48:10.832Z,75.77
2019-03-08T16:49:14.774Z,75.35
2019-03-08T16:50:10.820Z,76.49
2019-03-08T16:51:10.819Z,76.63
2019-03-08T16:52:10.790Z,76.53
2019-03-08T16:53:10.775Z,76.53
2019-03-08T16:54:10.762Z,76.93
2019-03-08T16:55:10.758Z,76.56
2019-03-08T16:56:10.774Z,77.04
2019-03-08T16:57:10.726Z,77.14
2019-03-08T16:58:10.718Z,77.38
2019-03-08T16:59:10.703Z,77.48
2019-03-08T17:00:10.693Z,77.59
2019-03-08T17:01:10.706Z,78.41
2019-03-08T17:02:10.679Z,77.52
2019-03-08T17:03:10.673Z,78.24
2019-03-08T17:04:10.681Z,78.45
2019-03-08T17:05:10.640Z,77.90
2019-03-08T17:06:10.654Z,78.14
2019-03-08T17:07:10.623Z,78.34
2019-03-08T17:08:10.617Z,78.66
2019-03-08T17:09:10.594Z,78.45
2019-03-08T17:10:10.598Z,78.21
2019-03-08T17:11:10.590Z,78.34
2019-03-08T17:12:10.568Z,78.11
2019-03-08T17:13:10.563Z,78.52
2019-03-08T17:14:10.544Z,78.31
2019-03-08T17:15:10.549Z,78.31
2019-03-08T17:16:10.553Z,79.03
2019-03-08T17:17:10.523Z,79.79
2019-03-08T17:19:19.696Z,80.10
2019-03-08T17:20:21.873Z,80.00
2019-03-08T17:21:20.690Z,79.58
2019-03-08T17:22:20.664Z,80.30
2019-03-08T17:23:20.650Z,80.00
2019-03-08T17:24:20.639Z,79.48
2019-03-08T17:25:20.641Z,79.69
2019-03-08T17:26:20.657Z,80.51
2019-03-08T17:27:20.613Z,80.72
2019-03-08T17:28:20.602Z,80.41
2019-03-08T17:29:20.595Z,80.44
2019-03-08T17:30:20.575Z,80.72
2019-03-08T17:31:20.604Z,80.62
2019-03-08T17:32:20.556Z,80.93
2019-03-08T17:33:20.537Z,80.44
2019-03-08T17:34:20.541Z,81.17
2019-03-08T17:35:20.522Z,81.34
2019-03-08T17:36:20.533Z,81.48
2019-03-08T17:37:20.494Z,81.85
2019-03-08T17:38:20.496Z,81.75
2019-03-08T17:39:20.485Z,81.68
2019-03-08T17:40:20.478Z,81.68
2019-03-08T17:41:22.486Z,81.99
2019-03-08T17:42:20.452Z,81.03
2019-03-08T17:43:20.443Z,81.44
2019-03-08T17:44:20.427Z,81.54
2019-03-08T17:45:20.430Z,81.09
2019-03-08T17:46:20.427Z,81.44
2019-03-08T17:47:20.396Z,81.34
2019-03-08T17:48:20.381Z,81.13
2019-03-08T17:49:20.366Z,82.16
2019-03-08T17:50:20.364Z,81.96
2019-03-08T17:51:20.371Z,81.85
2019-03-08T17:52:20.336Z,81.03
2019-03-08T17:53:20.329Z,80.68
2019-03-08T17:54:20.314Z,81.03
2019-03-08T17:55:20.307Z,80.27
2019-03-08T17:56:20.321Z,80.72
2019-03-08T17:57:20.289Z,80.68
2019-03-08T17:58:20.278Z,80.68
2019-03-08T17:59:20.257Z,80.62
2019-03-08T18:00:20.280Z,81.03
2019-03-08T18:01:20.278Z,80.82
2019-03-08T18:02:20.254Z,80.68
2019-03-08T18:03:20.228Z,80.79
2019-03-08T18:04:20.221Z,80.20
2019-03-08T18:05:20.211Z,80.47
2019-03-08T18:06:20.197Z,80.93
2019-03-08T18:07:20.196Z,80.89
2019-03-08T18:08:20.169Z,80.82
2019-03-08T18:09:20.153Z,80.79
2019-03-08T18:10:20.154Z,80.79
2019-03-08T18:11:20.139Z,80.79
2019-03-08T18:12:20.132Z,80.37
2019-03-08T18:13:20.115Z,80.79
2019-03-08T18:14:20.104Z,80.27
2019-03-08T18:15:20.095Z,80.58
2019-03-08T18:16:20.963Z,80.68
2019-03-08T18:17:20.093Z,80.79
2019-03-08T18:18:20.067Z,80.47
2019-03-08T18:19:20.048Z,80.27
2019-03-08T18:20:20.071Z,79.44
2019-03-08T18:21:20.031Z,79.96
2019-03-08T18:22:20.032Z,79.44
2019-03-08T18:23:20.012Z,79.96
2019-03-08T18:24:23.679Z,79.55
2019-03-08T18:25:19.991Z,80.16
2019-03-08T18:26:20.000Z,80.06
2019-03-08T18:27:19.980Z,79.61
2019-03-08T18:28:19.960Z,79.75
2019-03-08T18:29:19.941Z,79.55
2019-03-08T18:30:19.930Z,79.96
2019-03-08T18:31:19.914Z,79.44
2019-03-08T18:32:19.920Z,79.44
2019-03-08T18:33:19.937Z,79.10
2019-03-08T18:34:19.952Z,79.93
2019-03-08T18:35:19.866Z,80.02
2019-03-08T18:36:19.860Z,80.02
2019-03-08T18:37:19.871Z,79.75
2019-03-08T18:38:19.844Z,79.75
2019-03-08T18:39:19.840Z,79.96
2019-03-08T18:40:19.823Z,80.06
2019-03-08T18:41:19.820Z,79.44
2019-03-08T18:42:19.807Z,80.27
2019-03-08T18:43:19.792Z,80.02
2019-03-08T18:44:19.779Z,79.93
2019-03-08T18:45:19.760Z,79.82
2019-03-08T18:46:19.753Z,79.86
2019-03-08T18:47:19.759Z,79.65
2019-03-08T18:48:19.726Z,79.86
2019-03-08T18:49:19.718Z,80.06
2019-03-08T18:50:19.721Z,80.27
2019-03-08T18:51:19.704Z,79.93
2019-03-08T18:52:19.735Z,79.65
2019-03-08T18:53:19.675Z,79.61
2019-03-08T18:54:19.672Z,78.58
2019-03-08T18:55:19.661Z,78.58
2019-03-08T18:56:19.637Z,78.17
2019-03-08T18:57:19.669Z,78.48
2019-03-08T18:58:19.617Z,78.38
2019-03-08T18:59:19.611Z,78.28
2019-03-08T19:00:19.602Z,78.58
2019-03-08T19:01:19.613Z,78.17
2019-03-08T19:02:19.600Z,78.17
2019-03-08T19:03:19.570Z,78.58
2019-03-08T19:04:19.566Z,78.07
2019-03-08T19:05:19.549Z,78.38
2019-03-08T19:06:19.529Z,77.97
2019-03-08T19:07:19.537Z,78.38
2019-03-08T19:08:19.511Z,77.86
2019-03-08T19:09:19.496Z,78.07
2019-03-08T19:10:19.494Z,77.51
2019-03-08T19:11:19.491Z,77.55
2019-03-08T19:12:19.546Z,77.66
2019-03-08T19:13:19.467Z,78.07
2019-03-08T19:14:19.454Z,77.97
2019-03-08T19:15:19.440Z,78.38
2019-03-08T19:16:19.435Z,78.28
2019-03-08T19:17:19.425Z,78.07
2019-03-08T19:18:19.406Z,78.28
2019-03-08T19:20:28.588Z,77.45
2019-03-08T19:21:29.574Z,77.45
2019-03-08T19:22:29.583Z,78.24
2019-03-08T19:23:29.566Z,78.07
2019-03-08T19:24:31.868Z,78.48
2019-03-08T19:25:29.537Z,77.51
2019-03-08T19:26:29.533Z,77.76
2019-03-08T19:27:29.531Z,77.31
2019-03-08T19:28:29.510Z,76.79
2019-03-08T19:29:29.500Z,77.35
2019-03-08T19:30:29.490Z,76.90
2019-03-08T19:31:29.470Z,76.63
2019-03-08T19:32:29.479Z,77.51
2019-03-08T19:33:29.448Z,77.45
2019-03-08T19:34:29.452Z,78.03
2019-03-08T19:35:29.433Z,78.24
2019-03-08T19:36:29.437Z,78.28
2019-03-08T19:37:29.417Z,77.97
2019-03-08T19:38:29.398Z,78.48
2019-03-08T19:39:29.387Z,77.66
2019-03-08T19:40:29.372Z,78.48
2019-03-08T19:41:29.360Z,77.45
2019-03-08T19:42:29.372Z,78.07
2019-03-08T19:43:29.346Z,77.35
2019-03-08T19:44:29.336Z,77.76
2019-03-08T19:45:29.325Z,77.25
2019-03-08T19:46:29.312Z,77.45
2019-03-08T19:47:29.324Z,77.86
2019-03-08T19:48:29.293Z,77.42
2019-03-08T19:49:29.274Z,77.11
2019-03-08T19:50:29.279Z,76.90
2019-03-08T19:51:29.260Z,77.11
2019-03-08T19:52:29.267Z,76.39
2019-03-08T19:53:29.268Z,76.70
2019-03-08T19:54:29.221Z,75.73
2019-03-08T19:55:29.222Z,76.25
2019-03-08T19:56:29.207Z,75.32
2019-03-08T19:57:29.194Z,75.73
2019-03-08T19:58:29.201Z,75.87
2019-03-08T19:59:29.175Z,76.49
2019-03-08T20:00:29.159Z,76.14
2019-03-08T20:01:29.150Z,76.28
2019-03-08T20:02:29.126Z,76.25
2019-03-08T20:03:29.143Z,74.80
2019-03-08T20:04:29.112Z,74.80
2019-03-08T20:05:29.108Z,75.01
2019-03-08T20:06:29.107Z,74.19
2019-03-08T20:07:29.071Z,74.80
2019-03-08T20:08:29.094Z,74.60
2019-03-08T20:09:29.047Z,73.88
2019-03-08T20:10:29.050Z,74.63
2019-03-08T20:11:29.036Z,74.43
2019-03-08T20:12:29.030Z,74.50
2019-03-08T20:13:29.033Z,74.60
2019-03-08T20:14:29.011Z,74.50
2019-03-08T20:15:28.998Z,74.60
2019-03-08T20:16:28.975Z,74.08
2019-03-08T20:17:28.965Z,74.08
2019-03-08T20:18:29.011Z,73.88
2019-03-08T20:19:28.937Z,74.29
2019-03-08T20:20:28.946Z,74.53
2019-03-08T20:21:28.927Z,74.12
2019-03-08T20:22:28.918Z,74.40
2019-03-08T20:23:28.918Z,74.19
2019-03-08T20:24:28.900Z,74.63
2019-03-08T20:25:28.870Z,74.95
2019-03-08T20:26:28.872Z,74.40
2019-03-08T20:27:28.858Z,74.60
2019-03-08T20:28:28.861Z,74.29
2019-03-08T20:29:28.844Z,73.98
2019-03-08T20:30:28.839Z,75.39
2019-03-08T20:31:28.826Z,76.11
2019-03-08T20:32:28.794Z,75.18
2019-03-08T20:33:28.815Z,76.11
2019-03-08T20:34:28.784Z,76.83
2019-03-08T20:35:28.766Z,77.03
2019-03-08T20:36:28.749Z,78.06
2019-03-08T20:37:28.758Z,78.41
2019-03-08T20:38:28.757Z,78.96
2019-03-08T20:39:28.716Z,78.65
2019-03-08T20:40:28.708Z,79.93
2019-03-08T20:41:28.701Z,79.75
2019-03-08T20:42:28.692Z,79.96
2019-03-08T20:43:28.704Z,80.99
2019-03-08T20:44:28.680Z,80.89
2019-03-08T20:45:28.652Z,80.89
2019-03-08T20:46:28.641Z,81.51
2019-03-08T20:47:28.633Z,82.02
2019-03-08T20:48:28.643Z,82.57
2019-03-08T20:49:28.631Z,80.37
2019-03-08T20:50:28.607Z,79.48
2019-03-08T20:51:28.593Z,81.03
2019-03-08T20:52:28.618Z,79.65
2019-03-08T20:53:28.629Z,81.03
2019-03-08T20:54:28.575Z,81.96
2019-03-08T20:55:28.547Z,80.62
2019-03-08T20:56:28.533Z,80.10
2019-03-08T20:57:28.530Z,80.41
2019-03-08T20:58:28.508Z,80.51
2019-03-08T20:59:28.532Z,81.13
2019-03-08T21:00:28.501Z,81.13
2019-03-08T21:01:28.472Z,81.65
2019-03-08T21:02:28.463Z,81.17
2019-03-08T21:03:28.473Z,81.75
2019-03-08T21:04:28.462Z,81.58
2019-03-08T21:05:28.429Z,81.65
2019-03-08T21:06:28.432Z,81.79
2019-03-08T21:07:28.410Z,81.89
2019-03-08T21:08:28.401Z,82.51
2019-03-08T21:09:28.418Z,82.51
2019-03-08T21:10:28.387Z,83.54
2019-03-08T21:11:28.387Z,82.40
2019-03-08T21:12:28.368Z,83.44
2019-03-08T21:13:28.354Z,83.03
2019-03-08T21:14:28.370Z,82.51
2019-03-08T21:15:28.331Z,83.33
2019-03-08T21:16:28.307Z,83.54
2019-03-08T21:17:28.320Z,83.85
2019-03-08T21:18:28.310Z,84.27
2019-03-08T21:19:28.312Z,84.16
2019-03-08T21:21:37.471Z,83.75
2019-03-08T21:22:38.454Z,84.12
2019-03-08T21:23:38.434Z,83.81
2019-03-08T21:24:38.446Z,83.09
2019-03-08T21:25:38.409Z,83.29
2019-03-08T21:26:38.414Z,82.98
2019-03-08T21:27:38.397Z,83.29
2019-03-08T21:28:38.388Z,83.71
2019-03-08T21:29:38.380Z,83.81
2019-03-08T21:30:38.371Z,83.29
2019-03-08T21:31:38.361Z,82.64
2019-03-08T21:32:38.343Z,82.84
2019-03-08T21:33:38.332Z,82.54
2019-03-08T21:34:38.345Z,83.47
2019-03-08T21:35:38.300Z,83.15
2019-03-08T21:36:38.294Z,82.64
2019-03-08T21:37:38.284Z,82.64
2019-03-08T21:38:38.282Z,83.47
2019-03-08T21:39:38.285Z,82.64
2019-03-08T21:40:38.255Z,82.84
2019-03-08T21:41:38.242Z,82.64
2019-03-08T21:42:38.233Z,83.56
2019-03-08T21:43:38.220Z,82.95
2019-03-08T21:44:38.226Z,83.77
2019-03-08T21:45:38.193Z,83.87
2019-03-08T21:46:38.194Z,83.56
2019-03-08T21:47:38.200Z,83.26
2019-03-08T21:48:38.166Z,83.15
2019-03-08T21:49:39.449Z,83.36
2019-03-08T21:50:38.153Z,83.56
2019-03-08T21:51:38.144Z,83.56
2019-03-08T21:52:38.142Z,82.95
2019-03-08T21:53:38.122Z,83.56
2019-03-08T21:54:38.124Z,83.67
2019-03-08T21:55:38.093Z,84.19
2019-03-08T21:56:38.087Z,83.26
2019-03-08T21:57:38.074Z,83.67
2019-03-08T21:58:38.076Z,83.56
2019-03-08T21:59:38.068Z,83.98
2019-03-08T22:00:38.068Z,83.67
2019-03-08T22:01:38.034Z,83.77
2019-03-08T22:02:38.023Z,83.77
2019-03-08T22:03:38.018Z,83.36
2019-03-08T22:04:38.002Z,83.47
2019-03-08T22:05:38.000Z,83.98
2019-03-08T22:06:37.970Z,83.77
2019-03-08T22:07:37.967Z,84.33
2019-03-08T22:08:37.951Z,83.87
2019-03-08T22:09:37.940Z,83.98
2019-03-08T22:10:37.938Z,84.39
2019-03-08T22:11:37.925Z,84.19
2019-03-08T22:12:37.913Z,84.33
2019-03-08T22:13:37.914Z,84.19
2019-03-08T22:14:37.897Z,84.29
2019-03-08T22:15:38.874Z,84.33
2019-03-08T22:16:37.879Z,84.39
2019-03-08T22:17:38.737Z,84.53
2019-03-08T22:18:37.863Z,84.84
2019-03-08T22:19:37.836Z,84.84
2019-03-08T22:20:37.864Z,84.59
2019-03-08T22:21:37.809Z,84.43
2019-03-08T22:22:37.815Z,85.05
2019-03-08T22:23:37.806Z,85.11
2019-03-08T22:24:37.774Z,85.25
2019-03-08T22:25:37.795Z,85.97
2019-03-08T22:26:37.763Z,85.71
2019-03-08T22:27:37.751Z,85.87
2019-03-08T22:28:37.746Z,85.46
2019-03-08T22:29:37.718Z,85.67
2019-03-08T22:30:37.741Z,85.46
2019-03-08T22:31:37.699Z,85.67
2019-03-08T22:32:37.692Z,86.08
2019-03-08T22:33:37.684Z,85.71
2019-03-08T22:34:37.673Z,85.57
2019-03-08T22:35:37.682Z,85.97
2019-03-08T22:36:37.683Z,85.57
2019-03-08T22:37:37.651Z,85.71
2019-03-08T22:38:37.637Z,85.67
2019-03-08T22:39:37.620Z,85.91
2019-03-08T22:40:37.638Z,86.39
2019-03-08T22:41:37.600Z,86.29
2019-03-08T22:42:37.583Z,86.08
2019-03-08T22:43:37.568Z,86.08
2019-03-08T22:44:37.565Z,86.02
2019-03-08T22:45:37.741Z,85.97
2019-03-08T22:46:45.038Z,86.32
2019-03-08T22:47:37.554Z,86.12
2019-03-08T22:48:37.610Z,86.08
2019-03-08T22:49:38.223Z,86.53
2019-03-08T22:50:37.615Z,85.87
2019-03-08T22:51:37.551Z,85.57
2019-03-08T22:52:37.540Z,86.08
2019-03-08T22:53:37.469Z,85.63
2019-03-08T22:54:37.461Z,85.46
2019-03-08T22:55:37.458Z,85.57
2019-03-08T22:56:37.431Z,85.77
2019-03-08T22:57:37.415Z,85.77
2019-03-08T22:58:37.409Z,85.67
2019-03-08T22:59:37.399Z,86.29
2019-03-08T23:00:37.412Z,86.02
2019-03-08T23:01:37.377Z,85.39
2019-03-08T23:02:37.385Z,85.57
2019-03-08T23:03:37.363Z,85.77
2019-03-08T23:04:37.347Z,85.97
2019-03-08T23:05:38.209Z,85.46
2019-03-08T23:06:37.330Z,85.77
2019-03-08T23:07:37.312Z,85.87
2019-03-08T23:08:37.348Z,86.08
2019-03-08T23:09:37.300Z,85.57
2019-03-08T23:10:37.336Z,85.87
2019-03-08T23:11:37.268Z,85.15
2019-03-08T23:12:37.268Z,84.84
2019-03-08T23:13:37.245Z,84.22
2019-03-08T23:14:37.242Z,84.43
2019-03-08T23:15:37.251Z,83.98
2019-03-08T23:16:37.220Z,84.29
2019-03-08T23:17:37.207Z,83.98
2019-03-08T23:18:37.205Z,83.71
2019-03-08T23:19:37.191Z,83.98
2019-03-08T23:20:37.184Z,84.08
2019-03-08T23:22:46.367Z,83.61
2019-03-08T23:23:47.355Z,84.39
2019-03-08T23:24:47.343Z,84.19
2019-03-08T23:25:47.357Z,84.19
2019-03-08T23:26:47.315Z,83.98
2019-03-08T23:27:47.301Z,83.47
2019-03-08T23:28:47.290Z,83.56
2019-03-08T23:29:47.293Z,83.56
2019-03-08T23:30:47.298Z,83.47
2019-03-08T23:31:47.269Z,83.26
2019-03-08T23:32:47.251Z,83.63
2019-03-08T23:33:49.262Z,83.77
2019-03-08T23:34:47.249Z,83.26
2019-03-08T23:35:47.240Z,83.67
2019-03-08T23:36:47.205Z,83.47
2019-03-08T23:37:47.194Z,83.15
2019-03-08T23:38:47.193Z,82.91
2019-03-08T23:39:47.184Z,82.50
2019-03-08T23:40:47.180Z,82.60
2019-03-08T23:41:47.631Z,82.40
2019-03-08T23:42:47.153Z,82.09
2019-03-08T23:43:47.145Z,81.77
2019-03-08T23:44:47.123Z,82.50
2019-03-08T23:45:47.121Z,81.63
2019-03-08T23:46:47.121Z,81.12
2019-03-08T23:47:47.097Z,81.12
2019-03-08T23:48:47.084Z,82.05
2019-03-08T23:49:47.066Z,81.95
2019-03-08T23:50:47.061Z,80.61
2019-03-08T23:51:47.078Z,81.60
2019-03-08T23:52:47.044Z,81.02
2019-03-08T23:53:47.032Z,81.74
2019-03-08T23:54:47.015Z,81.63
2019-03-08T23:55:47.013Z,81.23
2019-03-08T23:56:47.005Z,81.63
2019-03-08T23:57:46.979Z,81.53
2019-03-08T23:58:46.974Z,81.63
2019-03-08T23:59:46.959Z,81.43
